Time;durP1;ratioP1;P1;durP2;ratioP2;P2;SDS_P1;SDS_P2;PMS_P1;PMS_P2;Temp;Humidity;BMP_temperature;BMP_pressure;BME280_temperature;BME280_humidity;BME280_pressure;Samples;Min_cycle;Max_cycle;Signal;HPM_P1;HPM_P2
2023/01/05 00:00:23;;;;;;;;;;;9.00;99.90;;;;;;5068449;28;19981;-71
2023/01/05 00:02:49;;;;;;;;;;;9.00;99.90;;;;;;5072332;28;19917;-71
2023/01/05 00:05:14;;;;;;;;;;;9.00;99.90;;;;;;5073342;28;19913;-72
2023/01/05 00:07:40;;;;;;;;;;;9.10;99.90;;;;;;5073515;28;20355;-71
2023/01/05 00:22:29;;;;;;;;;;;9.10;99.90;;;;;;5073352;28;19916;-72
2023/01/05 00:23:52;;;;;;;;;;;9.30;99.90;;;;;;5076946;28;19920;-72
2023/01/05 00:26:17;;;;;;;;;;;9.30;99.90;;;;;;5058664;28;19916;-72
2023/01/05 00:28:43;;;;;;;;;;;9.40;99.90;;;;;;5076736;28;19920;-72
2023/01/05 00:31:08;;;;;;;;;;;9.40;99.90;;;;;;5058541;28;19961;-71
2023/01/05 00:33:34;;;;;;;;;;;;;;;;;;5076702;28;20268;-72
2023/01/05 00:36:00;;;;;;;;;;;9.60;99.90;;;;;;5058912;28;19973;-71
2023/01/05 00:38:25;;;;;;;;;;;9.70;99.90;;;;;;5076732;28;19958;-73
2023/01/05 00:40:54;;;;;;;;;;;9.60;99.90;;;;;;5058573;28;19921;-72
2023/01/05 00:43:19;;;;;;;;;;;9.60;99.90;;;;;;5076585;28;19919;-72
2023/01/05 00:45:45;;;;;;;;;;;9.60;99.90;;;;;;5076492;28;19913;-72
2023/01/05 00:48:11;;;;;;;;;;;9.60;99.90;;;;;;5076686;28;20318;-71
2023/01/05 00:50:36;;;;;;;;;;;9.50;99.90;;;;;;5058993;28;19912;-73
2023/01/05 00:53:04;;;;;;;;;;;9.40;99.90;;;;;;5076615;28;19944;-71
2023/01/05 00:55:29;;;;;;;;;;;9.20;99.90;;;;;;5058628;28;20455;-71
2023/01/05 00:57:55;;;;;;;;;;;9.00;99.90;;;;;;5060610;28;19983;-72
2023/01/05 01:00:21;;;;;;;;;;;8.90;99.90;;;;;;5075930;28;20315;-72
2023/01/05 01:02:49;;;;;;;;;;;8.80;99.90;;;;;;5068753;28;19944;-73
2023/01/05 01:05:15;;;;;;;;;;;8.70;99.90;;;;;;5076254;28;19913;-71
2023/01/05 01:07:40;;;;;;;;;;;8.70;99.90;;;;;;5069176;28;19919;-71
2023/01/05 01:10:07;;;;;;;;;;;8.70;99.90;;;;;;5075708;28;19919;-72
2023/01/05 01:12:32;;;;;;;;;;;8.70;99.90;;;;;;5075882;28;19966;-73
2023/01/05 01:14:58;;;;;;;;;;;8.70;99.90;;;;;;5075724;28;19932;-71
2023/01/05 01:17:24;;;;;;;;;;;8.50;99.90;;;;;;5075631;28;20333;-72
2023/01/05 01:19:49;;;;;;;;;;;8.40;99.90;;;;;;5075620;28;19925;-72
2023/01/05 01:22:15;;;;;;;;;;;8.40;99.90;;;;;;5075280;28;19945;-71
2023/01/05 01:24:40;;;;;;;;;;;8.50;99.90;;;;;;5075021;28;19913;-72
2023/01/05 01:27:06;;;;;;;;;;;8.50;99.90;;;;;;5075196;28;19912;-72
2023/01/05 01:29:32;;;;;;;;;;;8.50;99.90;;;;;;5074305;28;19913;-72
2023/01/05 01:31:58;;;;;;;;;;;8.50;99.90;;;;;;5075314;28;19912;-71
2023/01/05 01:34:24;;;;;;;;;;;8.50;99.90;;;;;;5075406;28;19913;-71
2023/01/05 01:36:49;;;;;;;;;;;8.50;99.90;;;;;;5075446;28;19923;-71
2023/01/05 01:39:15;;;;;;;;;;;8.50;99.90;;;;;;5075446;28;19971;-71
2023/01/05 01:41:41;;;;;;;;;;;8.50;99.90;;;;;;5073672;28;19913;-72
2023/01/05 01:44:25;;;;;;;;;;;8.60;99.90;;;;;;5058573;28;20356;-72
2023/01/05 01:46:50;;;;;;;;;;;8.60;99.90;;;;;;5075188;28;19956;-72
2023/01/05 01:49:16;;;;;;;;;;;8.40;99.90;;;;;;5075024;28;19959;-72
2023/01/05 01:51:43;;;;;;;;;;;8.30;99.90;;;;;;5075234;28;19913;-72
2023/01/05 01:54:11;;;;;;;;;;;8.40;99.90;;;;;;5074865;28;19923;-71
2023/01/05 01:56:57;;;;;;;;;;;8.40;99.90;;;;;;5074816;28;19957;-72
2023/01/05 01:59:23;;;;;;;;;;;8.50;99.90;;;;;;5070435;28;19920;-71
2023/01/05 02:01:50;;;;;;;;;;;8.60;99.90;;;;;;5074918;28;20376;-73
2023/01/05 02:04:15;;;;;;;;;;;8.70;99.90;;;;;;5074574;28;19913;-72
2023/01/05 02:06:41;;;;;;;;;;;8.80;99.90;;;;;;5074467;28;19913;-71
2023/01/05 02:09:07;;;;;;;;;;;8.90;99.90;;;;;;5074545;28;19912;-72
2023/01/05 02:11:41;;;;;;;;;;;8.50;99.90;;;;;;5074790;28;19912;-72
2023/01/05 02:14:13;;;;;;;;;;;8.30;99.90;;;;;;5074266;28;19924;-71
2023/01/05 02:16:50;;;;;;;;;;;8.30;99.90;;;;;;5073043;28;19923;-72
2023/01/05 02:19:28;;;;;;;;;;;8.30;99.90;;;;;;5056612;28;19924;-71
2023/01/05 02:22:22;;;;;;;;;;;8.30;99.90;;;;;;5056645;28;19917;-72
2023/01/05 02:24:51;;;;;;;;;;;8.50;99.90;;;;;;5074645;28;19951;-72
2023/01/05 02:30:45;;;;;;;;;;;8.70;99.90;;;;;;5061363;28;19919;-72
2023/01/05 02:33:30;;;;;;;;;;;8.70;99.90;;;;;;5061704;28;19919;-71
2023/01/05 02:36:13;;;;;;;;;;;8.80;99.90;;;;;;5074103;28;19912;-71
2023/01/05 02:38:48;;;;;;;;;;;8.80;99.90;;;;;;5074291;28;19966;-72
2023/01/05 02:41:34;;;;;;;;;;;8.80;99.90;;;;;;5074071;28;20364;-72
2023/01/05 02:44:00;;;;;;;;;;;8.70;99.90;;;;;;5055866;28;19913;-71
2023/01/05 02:46:26;;;;;;;;;;;8.70;99.90;;;;;;5056399;28;19913;-71
2023/01/05 02:48:54;;;;;;;;;;;8.70;99.90;;;;;;5073740;28;19965;-70
2023/01/05 02:51:22;;;;;;;;;;;8.60;99.90;;;;;;5056283;28;19913;-71
2023/01/05 02:53:53;;;;;;;;;;;8.60;99.90;;;;;;5074374;28;19920;-71
2023/01/05 02:56:19;;;;;;;;;;;8.50;99.90;;;;;;5073481;28;19962;-71
2023/01/05 02:58:47;;;;;;;;;;;8.50;99.90;;;;;;5058003;28;19955;-72
2023/01/05 03:01:16;;;;;;;;;;;8.50;99.90;;;;;;5073155;28;19917;-71
2023/01/05 03:03:48;;;;;;;;;;;8.50;99.90;;;;;;5054823;28;19965;-72
2023/01/05 03:06:23;;;;;;;;;;;8.60;99.90;;;;;;5072753;28;19912;-72
2023/01/05 03:08:54;;;;;;;;;;;8.60;99.90;;;;;;5073854;28;20379;-71
2023/01/05 03:14:11;;;;;;;;;;;8.70;99.90;;;;;;5073616;28;19943;-72
2023/01/05 03:16:37;;;;;;;;;;;8.70;99.90;;;;;;5072466;28;19920;-72
2023/01/05 03:35:58;;;;;;;;;;;8.80;99.90;;;;;;5073706;28;19919;-71
2023/01/05 03:38:43;;;;;;;;;;;8.80;99.90;;;;;;5055581;28;19913;-72
2023/01/05 03:41:11;;;;;;;;;;;8.70;99.90;;;;;;5055232;28;19924;-71
2023/01/05 03:43:37;;;;;;;;;;;8.70;99.90;;;;;;5055937;28;19916;-71
2023/01/05 03:46:09;;;;;;;;;;;8.70;99.90;;;;;;5073924;28;20356;-71
2023/01/05 03:48:34;;;;;;;;;;;8.60;99.90;;;;;;5073731;28;19913;-70
2023/01/05 03:51:00;;;;;;;;;;;8.70;99.90;;;;;;5073457;28;19919;-71
2023/01/05 03:53:25;;;;;;;;;;;8.70;99.90;;;;;;5076537;28;20342;-71
2023/01/05 03:55:51;;;;;;;;;;;8.70;99.90;;;;;;5077265;28;19947;-71
2023/01/05 03:58:17;;;;;;;;;;;8.70;99.90;;;;;;5077483;28;19912;-71
2023/01/05 04:00:42;;;;;;;;;;;8.70;99.90;;;;;;5074485;28;19932;-71
2023/01/05 04:03:09;;;;;;;;;;;8.70;99.90;;;;;;5044829;28;20331;-71
2023/01/05 04:05:35;;;;;;;;;;;8.70;99.90;;;;;;5065028;28;20409;-72
2023/01/05 04:08:01;;;;;;;;;;;8.60;99.90;;;;;;5059533;28;20432;-71
2023/01/05 04:10:26;;;;;;;;;;;8.40;99.90;;;;;;5077069;28;19999;-71
2023/01/05 04:12:52;;;;;;;;;;;8.40;99.90;;;;;;5076725;28;20000;-71
2023/01/05 04:15:17;;;;;;;;;;;8.40;99.90;;;;;;5058883;28;20050;-71
2023/01/05 04:17:43;;;;;;;;;;;8.30;99.90;;;;;;5077265;28;19923;-71
2023/01/05 04:20:09;;;;;;;;;;;8.30;99.90;;;;;;5076255;28;19928;-71
2023/01/05 04:22:34;;;;;;;;;;;8.30;99.90;;;;;;5076209;28;19919;-71
2023/01/05 04:25:00;;;;;;;;;;;8.30;99.90;;;;;;5076571;28;19950;-71
2023/01/05 04:27:26;;;;;;;;;;;8.30;99.90;;;;;;5076481;28;19912;-70
2023/01/05 04:29:51;;;;;;;;;;;8.30;99.90;;;;;;5076949;28;20022;-70
2023/01/05 04:32:17;;;;;;;;;;;8.40;99.90;;;;;;5076794;28;19916;-72
2023/01/05 04:34:42;;;;;;;;;;;8.40;99.90;;;;;;5059148;28;19966;-71
2023/01/05 04:37:08;;;;;;;;;;;8.30;99.90;;;;;;5076778;28;20015;-71
2023/01/05 04:39:34;;;;;;;;;;;8.20;99.90;;;;;;5076621;28;19921;-71
2023/01/05 04:41:59;;;;;;;;;;;8.30;99.90;;;;;;5076716;28;19912;-71
2023/01/05 04:44:25;;;;;;;;;;;8.40;99.90;;;;;;5076621;28;19966;-71
2023/01/05 04:46:50;;;;;;;;;;;8.40;99.90;;;;;;5076834;28;20375;-71
2023/01/05 04:49:16;;;;;;;;;;;8.40;99.90;;;;;;5076517;28;19965;-71
2023/01/05 04:51:42;;;;;;;;;;;8.50;99.90;;;;;;5058118;28;19912;-70
2023/01/05 04:54:07;;;;;;;;;;;8.50;99.90;;;;;;5076252;28;19919;-70
2023/01/05 04:56:33;;;;;;;;;;;8.50;99.90;;;;;;5076323;28;19912;-72
2023/01/05 04:58:58;;;;;;;;;;;8.60;99.90;;;;;;5075458;28;19946;-70
2023/01/05 05:01:25;;;;;;;;;;;8.60;99.90;;;;;;5075508;28;20003;-71
2023/01/05 05:03:51;;;;;;;;;;;8.50;99.90;;;;;;5076036;28;20002;-71
2023/01/05 05:06:16;;;;;;;;;;;8.50;99.90;;;;;;5075741;28;19947;-72
2023/01/05 05:08:42;;;;;;;;;;;8.50;99.90;;;;;;5075293;28;19913;-71
2023/01/05 05:11:08;;;;;;;;;;;8.50;99.90;;;;;;5057680;28;20356;-71
2023/01/05 05:13:33;;;;;;;;;;;8.40;99.90;;;;;;5075678;28;19912;-71
2023/01/05 05:15:59;;;;;;;;;;;8.30;99.90;;;;;;5075342;28;20427;-71
2023/01/05 05:18:25;;;;;;;;;;;8.30;99.90;;;;;;5062216;28;19913;-72
2023/01/05 05:20:51;;;;;;;;;;;8.30;99.90;;;;;;5075550;28;20291;-71
2023/01/05 05:23:16;;;;;;;;;;;8.20;99.90;;;;;;5075294;28;19918;-72
2023/01/05 05:25:42;;;;;;;;;;;8.30;99.90;;;;;;5075459;28;20375;-72
2023/01/05 05:28:08;;;;;;;;;;;8.40;99.90;;;;;;5075918;28;20003;-72
2023/01/05 05:30:33;;;;;;;;;;;8.30;99.90;;;;;;5067176;28;19943;-72
2023/01/05 05:32:59;;;;;;;;;;;8.40;99.90;;;;;;5064659;28;19972;-71
2023/01/05 05:35:24;;;;;;;;;;;8.40;99.90;;;;;;5074915;28;19919;-73
2023/01/05 05:37:50;;;;;;;;;;;8.50;99.90;;;;;;5072980;28;19948;-70
2023/01/05 05:40:16;;;;;;;;;;;8.50;99.90;;;;;;5073205;28;19921;-71
2023/01/05 05:42:41;;;;;;;;;;;8.60;99.90;;;;;;5075621;28;20034;-71
2023/01/05 05:45:07;;;;;;;;;;;8.70;99.90;;;;;;5074428;28;19913;-71
2023/01/05 05:47:33;;;;;;;;;;;8.70;99.90;;;;;;5075180;28;19920;-72
2023/01/05 05:49:58;;;;;;;;;;;8.70;99.90;;;;;;5075210;28;19916;-71
2023/01/05 05:52:24;;;;;;;;;;;8.70;99.90;;;;;;5057288;28;20391;-71
2023/01/05 05:54:49;;;;;;;;;;;8.80;99.90;;;;;;5075334;28;19917;-70
2023/01/05 05:57:16;;;;;;;;;;;8.80;99.90;;;;;;5057413;28;19912;-71
2023/01/05 05:59:42;;;;;;;;;;;8.90;99.90;;;;;;5074199;28;19938;-72
2023/01/05 06:02:07;;;;;;;;;;;8.90;99.90;;;;;;5054778;28;19966;-73
2023/01/05 06:04:33;;;;;;;;;;;8.90;99.90;;;;;;5074335;28;19917;-73
2023/01/05 06:06:58;;;;;;;;;;;8.90;99.90;;;;;;5074830;28;20390;-72
2023/01/05 06:09:24;;;;;;;;;;;9.00;99.90;;;;;;5055739;28;20032;-70
2023/01/05 06:11:50;;;;;;;;;;;8.90;99.90;;;;;;5075124;28;19923;-73
2023/01/05 06:14:15;;;;;;;;;;;8.80;99.90;;;;;;5056671;28;20451;-71
2023/01/05 06:16:41;;;;;;;;;;;8.90;99.90;;;;;;5074492;28;19919;-71
2023/01/05 06:19:08;;;;;;;;;;;8.80;99.90;;;;;;5056712;28;19957;-73
2023/01/05 06:21:33;;;;;;;;;;;8.90;99.90;;;;;;5074768;28;19916;-72
2023/01/05 06:23:59;;;;;;;;;;;8.90;99.90;;;;;;5056276;28;19920;-71
2023/01/05 06:26:24;;;;;;;;;;;8.90;99.90;;;;;;5074219;28;20042;-72
2023/01/05 06:28:50;;;;;;;;;;;8.90;99.90;;;;;;5074340;28;19944;-72
2023/01/05 06:31:15;;;;;;;;;;;8.80;99.90;;;;;;5074185;28;19919;-73
2023/01/05 06:33:41;;;;;;;;;;;8.80;99.90;;;;;;5055902;28;19948;-71
2023/01/05 06:36:07;;;;;;;;;;;8.90;99.90;;;;;;5073651;28;19919;-71
2023/01/05 06:38:32;;;;;;;;;;;8.80;99.90;;;;;;5073891;28;19920;-73
2023/01/05 06:40:58;;;;;;;;;;;8.80;99.90;;;;;;5074064;28;19925;-71
2023/01/05 06:43:24;;;;;;;;;;;8.80;99.90;;;;;;5073926;28;19956;-73
2023/01/05 06:45:49;;;;;;;;;;;8.90;99.90;;;;;;5073833;28;19916;-73
2023/01/05 06:48:15;;;;;;;;;;;8.90;99.90;;;;;;5073621;28;19912;-73
2023/01/05 06:50:41;;;;;;;;;;;8.80;99.90;;;;;;5055956;28;19951;-73
2023/01/05 06:53:06;;;;;;;;;;;8.90;99.90;;;;;;5074330;28;19916;-73
2023/01/05 06:55:32;;;;;;;;;;;8.90;99.90;;;;;;5074227;28;19975;-72
2023/01/05 06:57:57;;;;;;;;;;;8.90;99.90;;;;;;5074363;28;19919;-72
2023/01/05 07:00:23;;;;;;;;;;;8.90;99.90;;;;;;5049941;28;20005;-72
2023/01/05 07:02:48;;;;;;;;;;;8.80;99.90;;;;;;5069536;28;19920;-72
2023/01/05 07:05:14;;;;;;;;;;;8.90;99.90;;;;;;5070074;28;19919;-73
2023/01/05 07:07:40;;;;;;;;;;;8.90;99.90;;;;;;5073743;28;19939;-72
2023/01/05 07:10:05;;;;;;;;;;;8.80;99.90;;;;;;5056176;28;19958;-73
2023/01/05 07:12:31;;;;;;;;;;;8.80;99.90;;;;;;5056083;28;19913;-74
2023/01/05 07:14:57;;;;;;;;;;;8.80;99.90;;;;;;5074199;28;19916;-74
2023/01/05 07:17:22;;;;;;;;;;;8.80;99.90;;;;;;5072924;28;20271;-73
2023/01/05 07:19:48;;;;;;;;;;;8.90;99.90;;;;;;5073449;28;19970;-72
2023/01/05 07:22:14;;;;;;;;;;;8.90;99.90;;;;;;5055924;28;20283;-74
2023/01/05 07:24:39;;;;;;;;;;;8.90;99.90;;;;;;5074346;28;20364;-74
2023/01/05 07:27:05;;;;;;;;;;;8.80;99.90;;;;;;5075370;28;19916;-74
2023/01/05 07:29:31;;;;;;;;;;;8.80;99.90;;;;;;5078347;28;19913;-74
2023/01/05 07:31:57;;;;;;;;;;;8.80;99.90;;;;;;5059374;28;19919;-74
2023/01/05 07:34:22;;;;;;;;;;;8.80;99.90;;;;;;5053343;28;20276;-73
2023/01/05 07:36:48;;;;;;;;;;;8.80;99.90;;;;;;5073932;28;19913;-74
2023/01/05 07:39:14;;;;;;;;;;;8.80;99.90;;;;;;5078166;28;19916;-74
2023/01/05 07:41:39;;;;;;;;;;;8.80;99.90;;;;;;5078151;28;19912;-74
2023/01/05 07:44:05;;;;;;;;;;;8.90;99.90;;;;;;5078033;28;19913;-74
2023/01/05 07:46:31;;;;;;;;;;;8.90;99.90;;;;;;5077739;28;20003;-74
2023/01/05 07:48:57;;;;;;;;;;;8.90;99.90;;;;;;5059942;28;19965;-74
2023/01/05 07:51:23;;;;;;;;;;;8.90;99.90;;;;;;5060026;28;19916;-74
2023/01/05 07:53:49;;;;;;;;;;;8.90;99.90;;;;;;5077996;28;19969;-73
2023/01/05 07:56:14;;;;;;;;;;;8.90;99.90;;;;;;5077733;28;19916;-73
2023/01/05 07:58:40;;;;;;;;;;;8.90;99.90;;;;;;5077693;28;20090;-74
2023/01/05 08:01:07;;;;;;;;;;;8.90;99.90;;;;;;5059367;28;20359;-74
2023/01/05 08:03:33;;;;;;;;;;;8.90;99.90;;;;;;5077619;28;20279;-73
2023/01/05 08:06:02;;;;;;;;;;;8.90;99.90;;;;;;5069677;28;19917;-73
2023/01/05 08:08:28;;;;;;;;;;;8.90;99.90;;;;;;5040846;28;19912;-74
2023/01/05 08:10:53;;;;;;;;;;;8.90;99.90;;;;;;5076380;28;19920;-74
2023/01/05 08:16:03;;;;;;;;;;;9.00;99.90;;;;;;5076806;28;19970;-72
2023/01/05 08:18:29;;;;;;;;;;;;;;;;;;5077327;28;20326;-73
2023/01/05 08:20:56;;;;;;;;;;;9.10;99.90;;;;;;5058939;28;19920;-73
2023/01/05 08:23:22;;;;;;;;;;;9.10;99.90;;;;;;5077406;28;19920;-73
2023/01/05 08:25:48;;;;;;;;;;;9.10;99.90;;;;;;5059319;28;19966;-73
2023/01/05 08:28:13;;;;;;;;;;;9.00;99.90;;;;;;5077155;28;19920;-73
2023/01/05 08:30:39;;;;;;;;;;;9.10;99.90;;;;;;5077299;28;19917;-73
2023/01/05 08:33:05;;;;;;;;;;;9.10;99.90;;;;;;5075902;28;19912;-73
2023/01/05 08:35:30;;;;;;;;;;;9.20;99.90;;;;;;5076526;28;20360;-72
2023/01/05 08:37:56;;;;;;;;;;;9.30;99.90;;;;;;5058440;28;20356;-72
2023/01/05 08:40:24;;;;;;;;;;;9.20;99.90;;;;;;5076808;28;19946;-72
2023/01/05 08:42:49;;;;;;;;;;;9.30;99.90;;;;;;5071022;28;19924;-73
2023/01/05 08:45:15;;;;;;;;;;;9.40;99.90;;;;;;5048238;28;19920;-72
2023/01/05 08:47:41;;;;;;;;;;;9.50;99.90;;;;;;5063793;28;20275;-73
2023/01/05 08:50:08;;;;;;;;;;;9.60;99.90;;;;;;5064645;28;19912;-75
2023/01/05 08:52:36;;;;;;;;;;;9.60;99.90;;;;;;5062678;28;19919;-72
2023/01/05 08:55:02;;;;;;;;;;;9.80;99.90;;;;;;5063245;28;19913;-75
2023/01/05 08:57:28;;;;;;;;;;;9.70;99.90;;;;;;5068730;28;19913;-72
2023/01/05 08:59:54;;;;;;;;;;;9.70;99.90;;;;;;5057848;28;20061;-71
2023/01/05 09:02:19;;;;;;;;;;;9.80;99.90;;;;;;5073566;28;19962;-71
2023/01/05 09:04:45;;;;;;;;;;;9.80;99.90;;;;;;5056672;28;19912;-71
2023/01/05 09:07:10;;;;;;;;;;;9.80;99.90;;;;;;5073597;28;19916;-70
2023/01/05 09:09:36;;;;;;;;;;;9.80;99.90;;;;;;5054836;28;20253;-70
2023/01/05 09:12:08;;;;;;;;;;;9.90;99.90;;;;;;5073027;28;19913;-71
2023/01/05 09:14:33;;;;;;;;;;;9.90;99.90;;;;;;5055130;28;20358;-71
2023/01/05 09:16:59;;;;;;;;;;;9.80;99.90;;;;;;5073086;28;19948;-72
2023/01/05 09:19:25;;;;;;;;;;;9.90;99.90;;;;;;5073003;28;20356;-73
2023/01/05 09:21:51;;;;;;;;;;;9.90;99.90;;;;;;5071899;28;20372;-72
2023/01/05 09:24:17;;;;;;;;;;;9.80;99.90;;;;;;5074488;28;19966;-71
2023/01/05 09:26:42;;;;;;;;;;;9.80;99.90;;;;;;5073946;28;19917;-71
2023/01/05 09:29:08;;;;;;;;;;;9.80;99.90;;;;;;5055852;28;20348;-71
2023/01/05 09:31:34;;;;;;;;;;;9.80;99.90;;;;;;5067467;28;19920;-74
2023/01/05 09:33:59;;;;;;;;;;;9.80;99.90;;;;;;5061641;28;20348;-72
2023/01/05 09:36:25;;;;;;;;;;;10.00;99.90;;;;;;5054685;28;19913;-70
2023/01/05 09:38:51;;;;;;;;;;;9.90;99.90;;;;;;5058448;28;20952;-73
2023/01/05 09:41:20;;;;;;;;;;;10.00;99.90;;;;;;5073740;28;19921;-72
2023/01/05 09:43:46;;;;;;;;;;;10.00;99.90;;;;;;5073797;28;19965;-71
2023/01/05 09:46:23;;;;;;;;;;;10.20;99.90;;;;;;5074128;28;19920;-72
2023/01/05 09:48:51;;;;;;;;;;;10.20;99.90;;;;;;5074409;28;19921;-72
2023/01/05 09:51:16;;;;;;;;;;;10.30;99.90;;;;;;5073104;28;19921;-72
2023/01/05 09:53:42;;;;;;;;;;;10.40;99.90;;;;;;5073724;28;20272;-72
2023/01/05 09:56:21;;;;;;;;;;;10.50;99.90;;;;;;5067485;28;19919;-73
2023/01/05 09:58:46;;;;;;;;;;;10.30;99.90;;;;;;5066316;28;19920;-74
2023/01/05 10:01:14;;;;;;;;;;;10.40;99.90;;;;;;5072748;28;19928;-73
2023/01/05 10:03:43;;;;;;;;;;;10.30;99.90;;;;;;5073180;28;19969;-73
2023/01/05 10:06:12;;;;;;;;;;;10.20;99.90;;;;;;5073145;28;20362;-72
2023/01/05 10:08:39;;;;;;;;;;;10.30;99.90;;;;;;5073360;28;19959;-74
2023/01/05 10:14:11;;;;;;;;;;;10.40;99.90;;;;;;5072832;28;19923;-73
2023/01/05 10:16:38;;;;;;;;;;;10.50;99.90;;;;;;5072991;28;19966;-73
2023/01/05 10:19:04;;;;;;;;;;;10.40;99.90;;;;;;5072711;28;19924;-73
2023/01/05 10:21:56;;;;;;;;;;;10.60;99.90;;;;;;5073170;28;19916;-73
2023/01/05 10:24:38;;;;;;;;;;;10.90;99.90;;;;;;5050954;28;19912;-72
2023/01/05 10:27:06;;;;;;;;;;;10.90;99.90;;;;;;5072806;28;20356;-72
2023/01/05 10:29:37;;;;;;;;;;;10.80;99.90;;;;;;5073132;28;19955;-72
2023/01/05 10:32:10;;;;;;;;;;;10.80;99.90;;;;;;5072531;28;19912;-72
2023/01/05 10:34:35;;;;;;;;;;;10.80;99.90;;;;;;5054696;28;19951;-73
2023/01/05 10:37:19;;;;;;;;;;;10.70;99.90;;;;;;5054787;28;20352;-73
2023/01/05 10:39:52;;;;;;;;;;;10.80;99.90;;;;;;5072871;28;20014;-72
2023/01/05 10:42:24;;;;;;;;;;;10.80;99.90;;;;;;5072672;28;19920;-73
2023/01/05 10:45:02;;;;;;;;;;;10.60;99.90;;;;;;5072359;28;20271;-73
2023/01/05 10:47:28;;;;;;;;;;;10.70;99.90;;;;;;5074274;28;19919;-73
2023/01/05 10:49:54;;;;;;;;;;;10.60;99.90;;;;;;5072528;28;19912;-72
2023/01/05 10:52:20;;;;;;;;;;;10.80;99.90;;;;;;5072551;28;20007;-73
2023/01/05 10:54:46;;;;;;;;;;;10.70;99.90;;;;;;5073051;28;20356;-72
2023/01/05 10:57:30;;;;;;;;;;;10.80;99.90;;;;;;5072424;28;19954;-71
2023/01/05 10:59:55;;;;;;;;;;;10.80;99.90;;;;;;5078117;28;20014;-74
2023/01/05 11:02:23;;;;;;;;;;;10.80;99.90;;;;;;5081915;28;19959;-72
2023/01/05 11:04:49;;;;;;;;;;;10.80;99.90;;;;;;5072120;28;19966;-73
2023/01/05 11:07:15;;;;;;;;;;;10.90;99.90;;;;;;5054911;28;19919;-71
2023/01/05 11:09:42;;;;;;;;;;;11.00;99.90;;;;;;5074124;28;19913;-73
2023/01/05 11:12:15;;;;;;;;;;;11.10;99.90;;;;;;5074223;28;19912;-72
2023/01/05 11:14:42;;;;;;;;;;;11.10;99.90;;;;;;5073912;28;19922;-73
2023/01/05 11:17:11;;;;;;;;;;;11.10;99.90;;;;;;5072006;28;19920;-73
2023/01/05 11:19:41;;;;;;;;;;;11.10;99.90;;;;;;5054317;28;19916;-73
2023/01/05 11:22:25;;;;;;;;;;;11.20;99.90;;;;;;5071476;28;20329;-74
2023/01/05 11:24:50;;;;;;;;;;;11.00;99.90;;;;;;5071908;28;19913;-73
2023/01/05 11:27:19;;;;;;;;;;;10.90;99.90;;;;;;5072510;28;20344;-73
2023/01/05 11:29:44;;;;;;;;;;;11.10;99.90;;;;;;5072531;28;20303;-72
2023/01/05 11:32:11;;;;;;;;;;;11.10;99.90;;;;;;5072014;28;19912;-75
2023/01/05 11:34:40;;;;;;;;;;;11.20;99.90;;;;;;5072267;28;20318;-72
2023/01/05 11:37:06;;;;;;;;;;;11.10;99.90;;;;;;5071875;28;19913;-72
2023/01/05 11:39:31;;;;;;;;;;;11.10;99.90;;;;;;5072199;28;20272;-72
2023/01/05 11:42:16;;;;;;;;;;;11.10;99.90;;;;;;5071867;28;19917;-73
2023/01/05 11:44:43;;;;;;;;;;;11.20;99.90;;;;;;5052995;28;19913;-75
2023/01/05 11:47:08;;;;;;;;;;;11.30;99.90;;;;;;5035079;28;20345;-75
2023/01/05 11:49:34;;;;;;;;;;;11.20;99.90;;;;;;5051836;28;19919;-74
2023/01/05 11:52:00;;;;;;;;;;;11.30;99.90;;;;;;5051720;28;19912;-75
2023/01/05 11:54:32;;;;;;;;;;;11.20;99.90;;;;;;5046067;28;19912;-73
2023/01/05 11:57:18;;;;;;;;;;;11.20;99.90;;;;;;5044114;28;19959;-73
2023/01/05 11:59:45;;;;;;;;;;;11.20;99.90;;;;;;5052599;28;20000;-76
2023/01/05 12:02:29;;;;;;;;;;;11.10;99.90;;;;;;5049971;28;20317;-76
2023/01/05 12:05:13;;;;;;;;;;;11.30;99.90;;;;;;5071358;28;19913;-74
2023/01/05 12:07:43;;;;;;;;;;;11.20;99.90;;;;;;5052587;28;19921;-72
2023/01/05 12:10:21;;;;;;;;;;;11.10;99.90;;;;;;5063911;28;19917;-74
2023/01/05 12:12:53;;;;;;;;;;;11.20;99.90;;;;;;5041725;28;19917;-72
2023/01/05 12:15:32;;;;;;;;;;;11.10;99.90;;;;;;5056941;28;19921;-73
2023/01/05 12:17:58;;;;;;;;;;;11.00;99.90;;;;;;5075092;28;19920;-75
2023/01/05 12:20:33;;;;;;;;;;;11.00;99.90;;;;;;5057284;28;19920;-76
2023/01/05 12:23:06;;;;;;;;;;;11.00;99.90;;;;;;5073999;28;19923;-73
2023/01/05 12:25:32;;;;;;;;;;;10.90;99.90;;;;;;5057049;28;19916;-74
2023/01/05 12:27:58;;;;;;;;;;;11.10;99.90;;;;;;5074414;28;19962;-73
2023/01/05 12:30:38;;;;;;;;;;;11.00;99.90;;;;;;5075037;28;19994;-73
2023/01/05 12:33:23;;;;;;;;;;;11.10;99.90;;;;;;5056419;28;19966;-73
2023/01/05 12:35:51;;;;;;;;;;;11.00;99.90;;;;;;5074978;28;19916;-73
2023/01/05 12:38:19;;;;;;;;;;;11.10;99.90;;;;;;5074838;28;19922;-73
2023/01/05 12:40:51;;;;;;;;;;;11.10;99.90;;;;;;5075086;28;19925;-73
2023/01/05 12:43:22;;;;;;;;;;;11.20;99.90;;;;;;5074696;28;19913;-73
2023/01/05 12:46:17;;;;;;;;;;;11.10;99.90;;;;;;5075152;28;19913;-72
2023/01/05 12:48:49;;;;;;;;;;;11.20;99.90;;;;;;5060775;28;19919;-73
2023/01/05 12:51:17;;;;;;;;;;;11.40;99.90;;;;;;5055942;28;19912;-73
2023/01/05 12:54:12;;;;;;;;;;;11.40;99.90;;;;;;5055330;28;20003;-73
2023/01/05 12:56:38;;;;;;;;;;;11.40;99.90;;;;;;5002160;28;20061;-73
2023/01/05 12:59:09;;;;;;;;;;;11.40;99.90;;;;;;5074252;28;20314;-73
2023/01/05 13:01:38;;;;;;;;;;;11.20;99.90;;;;;;5076695;28;19928;-73
2023/01/05 13:04:39;;;;;;;;;;;11.30;99.90;;;;;;5075840;28;20355;-73
2023/01/05 13:07:08;;;;;;;;;;;11.20;99.90;;;;;;5008412;28;19921;-73
2023/01/05 13:09:34;;;;;;;;;;;11.10;99.90;;;;;;5045339;28;19918;-73
2023/01/05 13:12:03;;;;;;;;;;;11.10;99.90;;;;;;5056362;28;19912;-73
2023/01/05 13:14:33;;;;;;;;;;;11.10;99.90;;;;;;5075181;28;20310;-73
2023/01/05 13:17:09;;;;;;;;;;;11.10;99.90;;;;;;5075154;28;19999;-73
2023/01/05 13:19:40;;;;;;;;;;;11.10;99.90;;;;;;5074230;28;19916;-73
2023/01/05 13:22:13;;;;;;;;;;;11.00;99.90;;;;;;5073969;28;20283;-73
2023/01/05 13:24:45;;;;;;;;;;;11.00;99.90;;;;;;5036366;28;20255;-73
2023/01/05 13:27:11;;;;;;;;;;;11.10;99.90;;;;;;5036429;28;20005;-73
2023/01/05 13:29:42;;;;;;;;;;;11.10;99.90;;;;;;5054062;28;19920;-73
2023/01/05 13:32:31;;;;;;;;;;;11.00;99.90;;;;;;5052619;28;20364;-73
2023/01/05 13:35:15;;;;;;;;;;;11.00;99.90;;;;;;5026794;28;20000;-73
2023/01/05 13:37:48;;;;;;;;;;;11.10;99.90;;;;;;5053902;28;19913;-73
2023/01/05 13:40:34;;;;;;;;;;;11.10;99.90;;;;;;5053957;28;20371;-73
2023/01/05 13:43:18;;;;;;;;;;;11.10;99.90;;;;;;5044256;28;20271;-73
2023/01/05 13:46:02;;;;;;;;;;;11.10;99.90;;;;;;5074037;28;19991;-73
2023/01/05 13:48:31;;;;;;;;;;;11.10;99.90;;;;;;5055876;28;19913;-73
2023/01/05 13:50:57;;;;;;;;;;;11.20;99.90;;;;;;5073657;28;19912;-73
2023/01/05 13:53:24;;;;;;;;;;;11.20;99.90;;;;;;5073468;28;20260;-73
2023/01/05 13:55:55;;;;;;;;;;;11.20;99.90;;;;;;5073306;28;19920;-73
2023/01/05 13:58:42;;;;;;;;;;;11.30;99.90;;;;;;5055856;28;19939;-73
2023/01/05 14:01:09;;;;;;;;;;;11.30;99.90;;;;;;5074082;28;19927;-73
2023/01/05 14:03:37;;;;;;;;;;;11.20;99.90;;;;;;5075282;28;19913;-73
2023/01/05 14:06:07;;;;;;;;;;;11.20;99.90;;;;;;5075480;28;20505;-73
2023/01/05 14:08:34;;;;;;;;;;;11.20;99.90;;;;;;5075540;28;19912;-73
2023/01/05 14:11:06;;;;;;;;;;;11.20;99.90;;;;;;5075343;28;19959;-73
2023/01/05 14:13:40;;;;;;;;;;;11.20;99.90;;;;;;5057784;28;20008;-73
2023/01/05 14:16:24;;;;;;;;;;;11.20;99.90;;;;;;5057104;28;19924;-73
2023/01/05 14:18:51;;;;;;;;;;;11.20;99.90;;;;;;5074980;28;19960;-73
2023/01/05 14:21:36;;;;;;;;;;;11.20;99.90;;;;;;5057167;28;20284;-73
2023/01/05 14:24:23;;;;;;;;;;;11.10;99.90;;;;;;5056584;28;21326;-73
2023/01/05 14:27:02;;;;;;;;;;;11.10;99.90;;;;;;5074979;28;19927;-73
2023/01/05 14:29:43;;;;;;;;;;;11.20;99.90;;;;;;5075371;28;19912;-73
2023/01/05 14:32:13;;;;;;;;;;;11.10;99.90;;;;;;5075107;28;20344;-73
2023/01/05 14:34:50;;;;;;;;;;;11.20;99.90;;;;;;5056933;28;19912;-73
2023/01/05 14:37:23;;;;;;;;;;;11.10;99.90;;;;;;5056530;28;19966;-73
2023/01/05 14:39:53;;;;;;;;;;;11.10;99.90;;;;;;5056893;28;19920;-73
2023/01/05 14:42:42;;;;;;;;;;;11.10;99.90;;;;;;5074952;28;19920;-72
2023/01/05 14:45:18;;;;;;;;;;;11.50;99.90;;;;;;5056843;28;19912;-72
2023/01/05 14:47:46;;;;;;;;;;;11.80;99.90;;;;;;5056801;28;19919;-72
2023/01/05 14:50:29;;;;;;;;;;;12.00;99.90;;;;;;5074930;28;19919;-73
2023/01/05 14:53:03;;;;;;;;;;;12.00;99.90;;;;;;5056764;28;19944;-73
2023/01/05 14:55:31;;;;;;;;;;;11.60;99.90;;;;;;5074128;28;19917;-73
2023/01/05 14:57:58;;;;;;;;;;;11.50;99.90;;;;;;5054161;28;19916;-73
2023/01/05 15:00:30;;;;;;;;;;;11.40;99.90;;;;;;5073357;28;19921;-73
2023/01/05 15:03:10;;;;;;;;;;;11.30;99.90;;;;;;5074030;28;19912;-73
2023/01/05 15:05:42;;;;;;;;;;;11.30;99.90;;;;;;5074119;28;20272;-73
2023/01/05 15:08:08;;;;;;;;;;;11.30;99.90;;;;;;5074514;28;19913;-73
2023/01/05 15:10:43;;;;;;;;;;;11.20;99.90;;;;;;5074341;28;19980;-73
2023/01/05 15:13:28;;;;;;;;;;;11.30;99.90;;;;;;5056180;28;19952;-73
2023/01/05 15:16:06;;;;;;;;;;;11.20;99.90;;;;;;5074361;28;19923;-73